Time;durP1;ratioP1;P1;durP2;ratioP2;P2;SDS_P1;SDS_P2;PMS_P1;PMS_P2;Temp;Humidity;BMP_temperature;BMP_pressure;BME280_temperature;BME280_humidity;BME280_pressure;Samples;Min_cycle;Max_cycle;Signal;HPM_P1;HPM_P2
2023/03/30 00:00:15;;;;;;;7.50;1.90;;;;;;;14.89;67.37;97789.69;5055938;28;20202;-76
2023/03/30 00:02:43;;;;;;;5.97;2.30;;;;;;;14.96;67.27;97784.91;5055880;28;20221;-76
2023/03/30 00:05:10;;;;;;;7.83;2.50;;;;;;;14.89;67.93;97780.81;5055881;28;20244;-76
2023/03/30 00:07:39;;;;;;;9.00;2.23;;;;;;;14.71;70.07;97773.16;5055748;28;20209;-76
2023/03/30 00:10:06;;;;;;;7.80;2.50;;;;;;;14.70;69.84;97779.56;5055788;28;20209;-76
2023/03/30 00:12:32;;;;;;;6.80;2.40;;;;;;;14.71;69.64;97776.63;5055860;28;20320;-76
2023/03/30 00:14:58;;;;;;;6.07;2.17;;;;;;;14.87;68.22;97767.69;5055642;28;20201;-76
2023/03/30 00:17:25;;;;;;;6.23;2.30;;;;;;;15.02;67.57;97769.72;5055487;28;20205;-76
2023/03/30 00:19:51;;;;;;;8.27;2.57;;;;;;;15.09;67.11;97767.63;5055599;28;20212;-76
2023/03/30 00:22:18;;;;;;;9.10;2.73;;;;;;;14.98;68.53;97761.41;5054865;28;20217;-76
2023/03/30 00:24:44;;;;;;;9.87;2.20;;;;;;;15.13;69.27;97760.69;5055527;28;20216;-76
2023/03/30 00:27:10;;;;;;;8.73;2.40;;;;;;;15.22;68.03;97757.31;5055129;28;20209;-76
2023/03/30 00:29:37;;;;;;;10.30;2.90;;;;;;;15.46;66.19;97752.41;5055361;28;20209;-76
2023/03/30 00:32:03;;;;;;;8.47;2.83;;;;;;;15.43;66.87;97751.06;5054779;28;20696;-76
2023/03/30 00:34:29;;;;;;;11.90;2.63;;;;;;;15.32;67.15;97752.03;5055370;28;20190;-76
2023/03/30 00:36:56;;;;;;;7.67;2.30;;;;;;;15.36;66.82;97747.81;5055246;28;20205;-76
2023/03/30 00:39:25;;;;;;;8.17;2.63;;;;;;;15.14;68.65;97741.72;5055262;28;20213;-76
2023/03/30 00:41:52;;;;;;;11.37;2.40;;;;;;;15.01;69.98;97739.44;5055096;28;20296;-76
2023/03/30 00:44:55;;;;;;;15.67;2.73;;;;;;;14.98;68.87;97734.63;5055152;28;20201;-76
2023/03/30 00:47:22;;;;;;;9.27;2.73;;;;;;;14.94;69.46;97727.34;5055064;28;20207;-76
2023/03/30 00:49:49;;;;;;;7.40;2.30;;;;;;;14.84;70.47;97717.34;5054949;28;20208;-76
2023/03/30 00:52:18;;;;;;;4.83;2.30;;;;;;;14.85;69.96;97726.19;5054910;28;20237;-76
2023/03/30 00:54:47;;;;;;;10.77;2.60;;;;;;;14.87;70.05;97721.38;5054968;28;20205;-76
2023/03/30 00:57:14;;;;;;;7.43;2.60;;;;;;;14.85;70.04;97721.66;5054585;28;20217;-76
2023/03/30 00:59:41;;;;;;;11.40;2.80;;;;;;;14.78;70.08;97712.19;5037205;28;20212;-76
2023/03/30 01:02:07;;;;;;;7.87;2.80;;;;;;;14.66;71.74;97714.22;5054752;28;20221;-76
2023/03/30 01:04:36;;;;;;;11.57;2.70;;;;;;;14.70;70.59;97713.47;5054748;28;20213;-76
2023/03/30 01:07:04;;;;;;;10.53;2.70;;;;;;;14.61;71.66;97701.59;5054745;28;20288;-76
2023/03/30 01:09:30;;;;;;;7.73;2.70;;;;;;;14.62;71.59;97708.59;5054674;28;20205;-76
2023/03/30 01:11:57;;;;;;;9.70;2.70;;;;;;;14.73;71.16;97704.94;5054360;28;20228;-76
2023/03/30 01:14:23;;;;;;;9.70;2.53;;;;;;;14.66;73.28;97707.00;5054549;28;20215;-76
2023/03/30 01:17:17;;;;;;;10.17;2.60;;;;;;;14.72;72.74;97692.63;5054368;28;20213;-76
2023/03/30 01:20:11;;;;;;;9.93;2.43;;;;;;;14.77;71.74;97698.03;5054554;28;20572;-76
2023/03/30 01:22:40;;;;;;;7.17;2.53;;;;;;;14.80;72.59;97700.19;5054343;28;20229;-76
2023/03/30 01:25:32;;;;;;;9.87;2.60;;;;;;;14.63;76.84;97704.03;5054669;28;20205;-76
2023/03/30 01:28:29;;;;;;;10.50;2.53;;;;;;;14.29;84.50;97708.75;5054339;28;20192;-76
2023/03/30 01:31:02;;;;;;;10.40;2.50;;;;;;;14.51;79.59;97722.13;5054244;28;20213;-76
2023/03/30 01:33:37;;;;;;;9.63;2.77;;;;;;;14.30;84.10;97747.78;5053073;28;20244;-76
2023/03/30 01:36:31;;;;;;;9.80;2.63;;;;;;;14.45;82.13;97729.25;5054361;28;20213;-75
2023/03/30 01:39:13;;;;;;;9.03;2.50;;;;;;;14.25;85.46;97720.22;5053877;28;20655;-76
2023/03/30 01:42:13;;;;;;;9.90;2.80;;;;;;;14.43;84.21;97709.19;5054143;28;20207;-76
2023/03/30 01:45:01;;;;;;;15.03;3.43;;;;;;;14.14;90.57;97700.53;5054086;28;20255;-75
2023/03/30 01:48:01;;;;;;;12.67;2.80;;;;;;;14.14;88.00;97692.50;5036242;28;20199;-76
2023/03/30 01:50:53;;;;;;;11.23;2.87;;;;;;;14.02;90.56;97681.13;4999674;28;20201;-76
2023/03/30 01:53:33;;;;;;;9.67;2.80;;;;;;;14.10;89.75;97703.94;5054063;28;20225;-76
2023/03/30 01:56:08;;;;;;;10.87;2.60;;;;;;;14.12;90.79;97713.34;5036209;28;20189;-76
2023/03/30 01:58:47;;;;;;;11.60;3.50;;;;;;;14.22;90.42;97716.16;5035790;28;20189;-76
2023/03/30 02:01:16;;;;;;;9.27;2.73;;;;;;;14.27;89.49;97713.56;5020916;28;20192;-76
2023/03/30 02:03:46;;;;;;;13.03;3.07;;;;;;;14.25;89.47;97712.19;5053621;28;20229;-76
2023/03/30 02:06:23;;;;;;;8.73;2.50;;;;;;;14.24;88.96;97708.69;5053663;28;20201;-76
2023/03/30 02:08:53;;;;;;;9.00;2.83;;;;;;;14.40;87.30;97720.38;5037014;28;20203;-75
2023/03/30 02:11:21;;;;;;;9.27;2.80;;;;;;;14.37;87.44;97710.97;5053495;28;20228;-76
2023/03/30 02:13:51;;;;;;;13.73;3.10;;;;;;;14.40;87.77;97707.81;5053191;28;20720;-76
2023/03/30 02:16:26;;;;;;;10.57;2.77;;;;;;;14.31;88.77;97716.53;5053715;28;20209;-75
2023/03/30 02:18:53;;;;;;;7.67;2.40;;;;;;;14.35;87.53;97721.13;5053553;28;20193;-76
2023/03/30 02:21:21;;;;;;;9.53;2.43;;;;;;;14.40;87.02;97725.72;5053474;28;20247;-76
2023/03/30 02:23:48;;;;;;;10.13;2.77;;;;;;;14.26;88.49;97730.66;5053325;28;20264;-76
2023/03/30 02:26:14;;;;;;;12.13;3.03;;;;;;;14.33;87.51;97736.59;5053426;28;20208;-76
2023/03/30 02:28:40;;;;;;;11.70;2.90;;;;;;;14.43;86.35;97730.56;5053348;28;20201;-76
2023/03/30 02:31:15;;;;;;;17.27;3.30;;;;;;;14.35;87.13;97739.84;5053095;28;20224;-76
2023/03/30 02:34:11;;;;;;;10.07;2.80;;;;;;;14.39;86.18;97735.59;5052777;28;20236;-76
2023/03/30 02:37:05;;;;;;;9.03;2.43;;;;;;;14.49;85.31;97729.56;5053228;28;20200;-75
2023/03/30 02:39:40;;;;;;;11.47;2.63;;;;;;;14.33;87.51;97736.59;5053299;28;20205;-76
2023/03/30 02:42:27;;;;;;;10.40;2.90;;;;;;;14.47;85.10;97735.16;5052902;28;20723;-76
2023/03/30 02:45:10;;;;;;;10.23;3.03;;;;;;;14.45;85.48;97734.63;5037062;28;20204;-76
2023/03/30 02:47:43;;;;;;;10.13;2.57;;;;;;;14.47;85.60;97734.38;5057951;28;20189;-76
2023/03/30 02:50:27;;;;;;;11.83;3.00;;;;;;;14.56;85.58;97733.66;5039750;28;20213;-76
2023/03/30 02:52:59;;;;;;;14.17;2.87;;;;;;;14.56;87.66;97736.31;5040280;28;20286;-76
2023/03/30 02:55:34;;;;;;;10.57;3.33;;;;;;;14.36;90.37;97719.25;5057248;28;20210;-76
2023/03/30 02:58:11;;;;;;;14.37;2.97;;;;;;;14.26;92.42;97725.31;5056995;28;20189;-76
2023/03/30 03:01:04;;;;;;;9.57;2.90;;;;;;;14.04;97.81;97710.28;5057010;28;20633;-75
2023/03/30 03:03:39;;;;;;;10.73;3.23;;;;;;;13.86;100.00;97700.72;5039657;28;20224;-75
2023/03/30 03:06:08;;;;;;;13.57;3.40;;;;;;;13.69;100.00;97694.63;5056570;28;20538;-76
2023/03/30 03:08:39;;;;;;;13.27;3.20;;;;;;;13.54;100.00;97670.38;5056883;28;20212;-76
2023/03/30 03:11:06;;;;;;;12.80;3.13;;;;;;;13.40;100.00;97674.47;5057279;28;20567;-76
2023/03/30 03:13:35;;;;;;;8.33;2.77;;;;;;;13.36;100.00;97685.88;5056649;28;20236;-76
2023/03/30 03:16:06;;;;;;;9.63;3.00;;;;;;;13.18;100.00;97678.13;5057013;28;20212;-76
2023/03/30 03:18:34;;;;;;;9.07;3.07;;;;;;;13.11;100.00;97674.81;5056532;28;20262;-76
2023/03/30 03:21:01;;;;;;;8.30;2.90;;;;;;;12.99;100.00;97669.56;5056612;28;20221;-76
2023/03/30 03:23:27;;;;;;;6.10;2.80;;;;;;;13.05;100.00;97655.25;5056504;28;20229;-76
2023/03/30 03:25:53;;;;;;;13.73;3.20;;;;;;;13.04;100.00;97666.16;5056320;28;20690;-76
2023/03/30 03:28:20;;;;;;;12.97;3.33;;;;;;;12.96;100.00;97662.00;5056470;28;20216;-76
2023/03/30 03:30:48;;;;;;;14.53;3.27;;;;;;;12.92;100.00;97660.88;5056524;28;20212;-76
2023/03/30 03:33:15;;;;;;;11.80;3.03;;;;;;;12.88;100.00;97667.75;5056192;28;20233;-76
2023/03/30 03:35:44;;;;;;;7.27;2.83;;;;;;;12.79;100.00;97650.53;5055874;28;20687;-76
2023/03/30 03:38:12;;;;;;;9.80;3.03;;;;;;;12.90;100.00;97652.31;5056030;28;20213;-76
2023/03/30 03:40:38;;;;;;;8.00;2.90;;;;;;;12.86;100.00;97651.19;5055961;28;20212;-76
2023/03/30 03:43:04;;;;;;;10.30;3.00;;;;;;;12.87;100.00;97634.13;5056032;28;20583;-76
2023/03/30 03:45:31;;;;;;;7.73;2.90;;;;;;;12.77;100.00;97641.97;5056134;28;20205;-76
2023/03/30 03:47:57;;;;;;;12.50;3.60;;;;;;;12.74;100.00;97646.97;5055923;28;20215;-76
2023/03/30 03:50:24;;;;;;;12.87;2.80;;;;;;;12.70;100.00;97651.97;5055847;28;20217;-76
2023/03/30 03:52:50;;;;;;;13.17;3.10;;;;;;;12.79;100.00;97650.53;5055625;28;20723;-76
2023/03/30 03:55:16;;;;;;;8.27;2.97;;;;;;;12.72;100.00;97652.56;5055810;28;20209;-76
2023/03/30 03:57:43;;;;;;;13.83;3.60;;;;;;;12.68;100.00;97655.94;5054743;28;20255;-76
2023/03/30 04:00:14;;;;;;;9.87;3.03;;;;;;;12.79;100.00;97647.06;5055872;28;20665;-76
2023/03/30 04:02:44;;;;;;;11.30;3.00;;;;;;;12.69;100.00;97644.22;5055619;28;20390;-76
2023/03/30 04:05:11;;;;;;;11.93;3.10;;;;;;;12.67;100.00;97646.31;5055586;28;20213;-76
2023/03/30 04:07:37;;;;;;;10.43;3.07;;;;;;;12.67;100.00;97644.47;5055412;28;20211;-76
2023/03/30 04:10:05;;;;;;;13.70;3.67;;;;;;;12.61;100.00;97640.09;5055185;28;20672;-76
2023/03/30 04:12:31;;;;;;;13.20;2.93;;;;;;;12.64;100.00;97634.28;5055539;28;20240;-76
2023/03/30 04:14:58;;;;;;;11.30;3.47;;;;;;;12.60;100.00;97641.16;5055835;28;20205;-76
2023/03/30 04:17:24;;;;;;;9.33;3.20;;;;;;;12.63;100.00;97626.53;5055538;28;20205;-76
2023/03/30 04:19:54;;;;;;;8.63;2.90;;;;;;;12.73;100.00;97613.34;5055082;28;20228;-76
2023/03/30 04:22:23;;;;;;;12.27;3.10;;;;;;;12.74;100.00;97591.78;5055065;28;20275;-76
2023/03/30 04:24:50;;;;;;;11.70;3.23;;;;;;;12.75;100.00;97587.25;5055123;28;20209;-76
2023/03/30 04:27:16;;;;;;;11.77;3.33;;;;;;;12.78;100.00;97584.91;5055207;28;20219;-76
2023/03/30 04:29:44;;;;;;;10.63;3.23;;;;;;;12.81;100.00;97581.75;5055017;28;20263;-76
2023/03/30 04:32:11;;;;;;;13.10;3.33;;;;;;;12.70;100.00;97579.97;5054976;28;20241;-76
2023/03/30 04:34:42;;;;;;;13.57;3.57;;;;;;;12.76;100.00;97571.00;5055197;28;20194;-76
2023/03/30 04:37:10;;;;;;;17.97;3.53;;;;;;;12.63;100.00;97563.34;5054831;28;20648;-75
2023/03/30 04:39:37;;;;;;;16.87;3.43;;;;;;;12.71;100.00;97560.25;5055054;28;20201;-76
2023/03/30 04:42:05;;;;;;;9.10;3.13;;;;;;;12.74;100.00;97543.75;5054688;28;20228;-76
2023/03/30 04:44:31;;;;;;;12.43;3.10;;;;;;;12.81;100.00;97544.41;5054700;28;20291;-76
2023/03/30 04:46:58;;;;;;;10.70;3.13;;;;;;;12.82;100.00;97540.69;5054844;28;20205;-76
2023/03/30 04:49:24;;;;;;;10.43;3.43;;;;;;;12.89;100.00;97540.50;5054845;28;20211;-76
2023/03/30 04:51:51;;;;;;;13.13;3.30;;;;;;;12.85;100.00;97534.84;5054490;28;20235;-76
2023/03/30 04:54:18;;;;;;;10.17;3.07;;;;;;;12.83;100.00;97533.47;5037118;28;20205;-75
2023/03/30 04:56:44;;;;;;;10.57;3.37;;;;;;;12.78;100.00;97542.22;5054524;28;20213;-75
2023/03/30 04:59:11;;;;;;;7.53;3.37;;;;;;;12.78;100.00;97546.75;5054860;28;20212;-76
2023/03/30 05:01:37;;;;;;;11.30;3.50;;;;;;;12.74;100.00;97546.44;5054237;28;20208;-76
2023/03/30 05:04:04;;;;;;;12.80;4.07;;;;;;;12.79;100.00;97541.16;5053885;28;20228;-75
2023/03/30 05:06:30;;;;;;;10.80;3.50;;;;;;;12.90;100.00;97542.94;5054410;28;20271;-78
2023/03/30 05:08:56;;;;;;;6.17;2.77;;;;;;;12.95;100.00;97548.34;5053824;28;20692;-77
2023/03/30 05:11:23;;;;;;;16.57;3.87;;;;;;;13.00;100.00;97548.44;5054187;28;20204;-77
2023/03/30 05:13:53;;;;;;;14.10;3.03;;;;;;;13.02;100.00;97545.53;5053955;28;20233;-77
2023/03/30 05:16:20;;;;;;;15.53;3.67;;;;;;;12.94;100.00;97532.56;5054140;28;20251;-77
2023/03/30 05:18:47;;;;;;;13.23;2.90;;;;;;;12.98;100.00;97526.50;5054398;28;20213;-77
2023/03/30 05:21:13;;;;;;;12.73;3.30;;;;;;;12.88;100.00;97521.00;5054095;28;20208;-77
2023/03/30 05:23:41;;;;;;;12.57;3.63;;;;;;;12.90;100.00;97526.94;5053402;28;20227;-77
2023/03/30 05:26:08;;;;;;;10.77;3.10;;;;;;;12.95;100.00;97527.00;5053755;28;20215;-77
2023/03/30 05:28:34;;;;;;;7.97;2.73;;;;;;;13.03;100.00;97526.59;5053662;28;20209;-76
2023/03/30 05:31:01;;;;;;;10.03;3.20;;;;;;;13.01;100.00;97523.38;5053882;28;20213;-77
2023/03/30 05:33:27;;;;;;;11.83;3.57;;;;;;;13.08;100.00;97513.34;5053187;28;20232;-76
2023/03/30 05:35:54;;;;;;;13.77;3.30;;;;;;;13.04;100.00;97506.88;5053681;28;20212;-76
2023/03/30 05:38:20;;;;;;;13.10;3.20;;;;;;;13.03;100.00;97505.22;5053716;28;20205;-76
2023/03/30 05:40:51;;;;;;;15.30;3.57;;;;;;;13.07;100.00;97517.03;5053281;28;20221;-76
2023/03/30 05:43:18;;;;;;;14.47;3.53;;;;;;;13.00;100.00;97516.41;5053422;28;20221;-76
2023/03/30 05:45:44;;;;;;;13.90;3.67;;;;;;;12.94;100.00;97505.91;5053293;28;20209;-77
2023/03/30 05:48:11;;;;;;;12.87;3.83;;;;;;;12.85;100.00;97502.81;5053363;28;20307;-76
2023/03/30 05:50:37;;;;;;;10.93;3.37;;;;;;;12.85;100.00;97513.50;5053612;28;20205;-76
2023/03/30 05:53:04;;;;;;;14.97;4.23;;;;;;;12.87;100.00;97518.59;5052862;28;20225;-76
2023/03/30 05:55:30;;;;;;;12.70;3.50;;;;;;;12.78;100.00;97528.88;5053094;28;20205;-76
2023/03/30 05:57:57;;;;;;;13.47;4.13;;;;;;;12.85;100.00;97526.84;5053056;28;20208;-76
2023/03/30 06:00:24;;;;;;;12.07;3.93;;;;;;;12.82;100.00;97540.69;5053132;28;20209;-76
2023/03/30 06:02:52;;;;;;;13.27;3.60;;;;;;;12.68;100.00;97539.41;5053069;28;20221;-76
2023/03/30 06:05:18;;;;;;;11.87;3.97;;;;;;;12.71;100.00;97538.91;5052921;28;20304;-77
2023/03/30 06:07:45;;;;;;;13.57;3.90;;;;;;;12.71;100.00;97556.78;5053216;28;20529;-76
2023/03/30 06:10:12;;;;;;;13.57;3.77;;;;;;;12.86;100.00;97563.16;5052653;28;20599;-76
2023/03/30 06:12:39;;;;;;;10.80;3.43;;;;;;;13.03;100.00;97577.28;5052830;28;20232;-76
2023/03/30 06:15:07;;;;;;;17.73;3.60;;;;;;;13.11;100.00;97594.75;5052582;28;20209;-76
2023/03/30 06:17:34;;;;;;;13.67;3.93;;;;;;;13.11;100.00;97610.78;5052953;28;20209;-77
2023/03/30 06:20:01;;;;;;;12.13;3.43;;;;;;;13.13;100.00;97616.66;5052512;28;20216;-76
2023/03/30 06:22:27;;;;;;;16.17;3.53;;;;;;;13.07;100.00;97626.44;5053091;28;20217;-76
2023/03/30 06:24:54;;;;;;;15.13;3.83;;;;;;;13.20;100.00;97620.75;5052585;28;20209;-76
2023/03/30 06:27:20;;;;;;;14.40;3.77;;;;;;;13.22;100.00;97625.88;5052360;28;20698;-76
2023/03/30 06:29:47;;;;;;;9.17;3.60;;;;;;;13.18;100.00;97625.56;5052250;28;20201;-76
2023/03/30 06:32:13;;;;;;;12.10;3.80;;;;;;;13.16;100.00;97610.84;5052736;28;20236;-77
2023/03/30 06:34:40;;;;;;;15.63;3.93;;;;;;;13.12;100.00;97602.50;5052720;28;20190;-74
2023/03/30 06:37:07;;;;;;;18.33;3.77;;;;;;;12.98;100.00;97611.91;5052852;28;20583;-75
2023/03/30 06:39:36;;;;;;;16.03;3.97;;;;;;;13.04;100.00;97632.28;5052559;28;20205;-74
2023/03/30 06:42:03;;;;;;;11.83;3.63;;;;;;;13.14;100.00;97648.44;5051413;28;20209;-74
2023/03/30 06:44:29;;;;;;;12.80;3.60;;;;;;;13.51;100.00;97662.03;5050452;28;20571;-77
2023/03/30 06:46:56;;;;;;;15.37;3.30;;;;;;;13.41;100.00;97653.88;5050078;28;20345;-76
2023/03/30 06:49:22;;;;;;;19.03;4.00;;;;;;;13.51;100.00;97664.72;5050140;28;20224;-76
2023/03/30 06:51:49;;;;;;;19.00;3.40;;;;;;;13.44;100.00;97670.25;5050341;28;20301;-76
2023/03/30 06:54:18;;;;;;;11.63;3.50;;;;;;;13.52;100.00;97685.03;5050119;28;20581;-77
2023/03/30 06:56:45;;;;;;;12.33;3.97;;;;;;;13.43;100.00;97697.97;5050913;28;20216;-77
2023/03/30 06:59:12;;;;;;;8.60;3.77;;;;;;;13.47;100.00;97699.09;5051820;28;20201;-77
2023/03/30 07:01:39;;;;;;;9.07;3.33;;;;;;;13.44;100.00;97707.63;5052809;28;20209;-77
2023/03/30 07:04:06;;;;;;;12.07;3.40;;;;;;;13.48;100.00;97706.06;5052730;28;20259;-76
2023/03/30 07:06:33;;;;;;;14.13;3.40;;;;;;;13.43;100.00;97718.56;5052444;28;20228;-76
2023/03/30 07:09:00;;;;;;;12.07;3.37;;;;;;;13.39;100.00;97733.44;5052288;28;20210;-77
2023/03/30 07:11:27;;;;;;;13.53;3.83;;;;;;;13.33;100.00;97724.53;5052370;28;20209;-75
2023/03/30 07:13:55;;;;;;;10.43;3.10;;;;;;;13.32;100.00;97722.94;5051967;28;20225;-77
2023/03/30 07:16:21;;;;;;;13.23;3.97;;;;;;;13.24;100.00;97715.31;5052140;28;20204;-77
2023/03/30 07:18:48;;;;;;;12.27;3.23;;;;;;;13.10;100.00;97734.56;5052560;28;20296;-78
2023/03/30 07:21:14;;;;;;;10.87;3.73;;;;;;;12.94;100.00;97730.81;5052701;28;20205;-78
2023/03/30 07:23:42;;;;;;;10.47;3.83;;;;;;;12.86;100.00;97736.56;5052221;28;20689;-77
2023/03/30 07:26:08;;;;;;;14.03;3.60;;;;;;;12.79;100.00;97743.09;5052498;28;20212;-77
2023/03/30 07:28:37;;;;;;;9.60;3.33;;;;;;;12.73;100.00;97760.88;5052102;28;20569;-78
2023/03/30 07:31:05;;;;;;;12.10;4.13;;;;;;;12.70;100.00;97766.66;5052815;28;20212;-76
2023/03/30 07:33:32;;;;;;;10.70;3.77;;;;;;;12.65;100.00;97774.56;5055819;28;20238;-78
2023/03/30 07:35:58;;;;;;;15.13;3.97;;;;;;;12.59;100.00;97770.22;5056246;28;20211;-78
2023/03/30 07:38:25;;;;;;;8.17;3.77;;;;;;;12.49;100.00;97734.53;5056043;28;20224;-77
2023/03/30 07:40:52;;;;;;;11.53;3.63;;;;;;;12.42;100.00;97726.69;5056025;28;20205;-77
2023/03/30 07:43:19;;;;;;;11.77;3.70;;;;;;;12.35;100.00;97746.53;5055313;28;20708;-77
2023/03/30 07:45:45;;;;;;;9.00;3.90;;;;;;;12.20;100.00;97727.59;5056144;28;20267;-76
2023/03/30 07:48:12;;;;;;;13.57;4.23;;;;;;;12.15;100.00;97720.28;5055664;28;20689;-76
2023/03/30 07:50:38;;;;;;;10.57;4.47;;;;;;;12.16;100.00;97737.88;5056068;28;20206;-76
2023/03/30 07:53:05;;;;;;;10.33;4.33;;;;;;;12.12;100.00;97725.28;5055783;28;20230;-76
2023/03/30 07:55:31;;;;;;;12.73;4.20;;;;;;;12.07;100.00;97731.31;5055845;28;20215;-76
2023/03/30 07:57:58;;;;;;;10.17;3.97;;;;;;;12.03;100.00;97722.16;5055347;28;20211;-76
2023/03/30 08:00:25;;;;;;;9.27;4.10;;;;;;;12.01;100.00;97721.59;5055485;28;20208;-76
2023/03/30 08:02:51;;;;;;;8.43;3.63;;;;;;;12.05;100.00;97732.59;5055740;28;20224;-76
2023/03/30 08:05:18;;;;;;;11.30;4.70;;;;;;;12.04;100.00;97731.81;5055784;28;20203;-76
2023/03/30 08:07:45;;;;;;;9.07;3.27;;;;;;;12.03;100.00;97740.81;5055610;28;20211;-76
2023/03/30 08:10:11;;;;;;;10.43;3.80;;;;;;;12.08;100.00;97753.44;5055611;28;20235;-76
2023/03/30 08:12:38;;;;;;;9.70;3.67;;;;;;;12.09;100.00;97779.03;5055278;28;20236;-76
2023/03/30 08:15:05;;;;;;;9.73;3.67;;;;;;;12.11;100.00;97788.41;5055567;28;20208;-76
2023/03/30 08:17:31;;;;;;;13.57;4.80;;;;;;;12.14;100.00;97805.78;5055640;28;20235;-76
2023/03/30 08:19:58;;;;;;;10.87;4.20;;;;;;;12.08;100.00;97804.88;5055658;28;20202;-76
2023/03/30 08:22:24;;;;;;;8.33;3.63;;;;;;;12.10;100.00;97821.44;5055553;28;20227;-75
2023/03/30 08:24:50;;;;;;;7.70;3.33;;;;;;;12.13;100.00;97820.16;5055346;28;20212;-75
2023/03/30 08:27:17;;;;;;;10.10;3.60;;;;;;;12.11;100.00;97820.41;5055337;28;20220;-76
2023/03/30 08:29:43;;;;;;;9.10;4.17;;;;;;;12.07;100.00;97807.78;5055214;28;20202;-76
2023/03/30 08:32:09;;;;;;;12.23;4.53;;;;;;;12.11;100.00;97798.28;5055434;28;20231;-77
2023/03/30 08:34:36;;;;;;;9.93;4.63;;;;;;;12.06;100.00;97796.31;5055087;28;20207;-77
2023/03/30 08:37:02;;;;;;;9.33;3.70;;;;;;;12.09;100.00;97785.19;5055015;28;20282;-76
2023/03/30 08:39:31;;;;;;;11.13;4.37;;;;;;;12.15;100.00;97781.56;5054942;28;20298;-76
2023/03/30 08:42:08;;;;;;;8.70;4.10;;;;;;;12.26;100.00;97778.06;5054329;28;20214;-76
2023/03/30 08:44:43;;;;;;;11.77;4.63;;;;;;;12.26;100.00;97770.06;5054818;28;20194;-76
2023/03/30 08:47:16;;;;;;;9.30;4.43;;;;;;;12.17;100.00;97755.50;5037449;28;20195;-76
2023/03/30 08:49:55;;;;;;;11.37;4.70;;;;;;;12.21;100.00;97767.31;5054637;28;20635;-76
2023/03/30 08:52:25;;;;;;;9.23;4.40;;;;;;;12.35;100.00;97759.88;5037987;28;20753;-76
2023/03/30 08:54:52;;;;;;;12.93;4.90;;;;;;;12.19;100.00;97756.09;5054752;28;20312;-76
2023/03/30 08:57:29;;;;;;;8.83;3.97;;;;;;;12.19;100.00;97747.25;5054271;28;20571;-76
2023/03/30 09:00:16;;;;;;;8.13;3.43;;;;;;;12.22;100.00;97733.47;5054696;28;20202;-76
2023/03/30 09:02:48;;;;;;;7.97;3.03;;;;;;;12.19;100.00;97724.09;5054377;28;20228;-76
2023/03/30 09:05:45;;;;;;;6.50;3.80;;;;;;;12.08;100.00;97737.47;5037018;28;20530;-76
2023/03/30 09:08:26;;;;;;;7.03;3.40;;;;;;;12.02;100.00;97723.22;5054278;28;20205;-76
2023/03/30 09:11:05;;;;;;;6.90;3.30;;;;;;;12.08;100.00;97719.59;5054227;28;20625;-77
2023/03/30 09:13:35;;;;;;;11.43;3.33;;;;;;;12.11;100.00;97713.81;5054228;28;20591;-76
2023/03/30 09:16:27;;;;;;;9.07;3.30;;;;;;;12.11;100.00;97713.03;5054406;28;20260;-76
2023/03/30 09:18:56;;;;;;;5.40;3.17;;;;;;;12.13;100.00;97727.72;5036854;28;20191;-76
2023/03/30 09:21:27;;;;;;;6.90;2.83;;;;;;;12.19;100.00;97718.78;5036854;28;20212;-76
2023/03/30 09:23:56;;;;;;;7.03;2.70;;;;;;;12.27;100.00;97705.09;5054313;28;20245;-76
2023/03/30 09:26:35;;;;;;;9.57;2.90;;;;;;;12.29;100.00;97710.19;5036678;28;20215;-77
2023/03/30 09:29:27;;;;;;;6.17;2.87;;;;;;;12.34;100.00;97715.59;5053657;28;20196;-77
2023/03/30 09:32:33;;;;;;;8.33;3.87;;;;;;;12.41;100.00;97716.25;5054184;28;20536;-77
2023/03/30 09:35:06;;;;;;;6.20;3.20;;;;;;;12.45;100.00;97725.41;5045159;28;20243;-77
2023/03/30 09:37:34;;;;;;;10.57;3.03;;;;;;;12.61;100.00;97740.63;5054540;28;20192;-77
2023/03/30 09:40:20;;;;;;;8.80;3.20;;;;;;;12.72;100.00;97737.09;5036025;28;20671;-76
2023/03/30 09:42:56;;;;;;;4.50;2.30;;;;;;;12.78;100.00;97733.47;5037761;28;20260;-77
2023/03/30 09:45:30;;;;;;;7.23;2.47;;;;;;;12.72;100.00;97753.09;5036056;28;20189;-77
2023/03/30 09:48:02;;;;;;;6.13;2.20;;;;;;;12.78;100.00;97768.94;5053804;28;20197;-77
2023/03/30 09:50:29;;;;;;;5.33;1.90;;;;;;;12.78;100.00;97765.47;5053932;28;20199;-77
2023/03/30 09:53:05;;;;;;;4.40;2.40;;;;;;;12.65;100.00;97779.09;5053701;28;20248;-77
2023/03/30 09:55:34;;;;;;;6.33;2.00;;;;;;;12.67;100.00;97769.00;5053077;28;20185;-77
2023/03/30 09:58:19;;;;;;;3.13;1.90;;;;;;;12.68;100.00;97775.97;5053601;28;20233;-77
2023/03/30 10:01:00;;;;;;;3.13;1.83;;;;;;;12.63;100.00;97784.69;5053857;28;20216;-77
2023/03/30 10:03:27;;;;;;;4.43;2.10;;;;;;;12.61;100.00;97778.75;5053080;28;20772;-77
2023/03/30 10:06:01;;;;;;;3.90;1.93;;;;;;;12.76;100.00;97772.91;5053503;28;20205;-77
2023/03/30 10:08:27;;;;;;;3.37;2.00;;;;;;;12.80;100.00;97760.72;5053556;28;20196;-77
2023/03/30 10:10:56;;;;;;;4.27;2.30;;;;;;;12.85;100.00;97769.59;5035627;28;20205;-77
2023/03/30 10:13:40;;;;;;;3.13;1.67;;;;;;;13.15;100.00;97783.50;5035267;28;20233;-77
2023/03/30 10:16:22;;;;;;;5.07;2.10;;;;;;;13.26;100.00;97777.31;5052631;28;20637;-78
2023/03/30 10:18:53;;;;;;;3.77;1.93;;;;;;;13.48;100.00;97772.81;5053127;28;20198;-78
2023/03/30 10:21:26;;;;;;;3.10;2.00;;;;;;;13.54;100.00;97766.53;5053032;28;20190;-78
2023/03/30 10:24:20;;;;;;;3.67;1.90;;;;;;;13.87;100.00;97757.63;5053100;28;20266;-78
2023/03/30 10:26:50;;;;;;;3.57;2.17;;;;;;;13.75;100.00;97760.41;5053126;28;20396;-77
2023/03/30 10:29:20;;;;;;;3.50;1.83;;;;;;;13.83;100.00;97754.66;5052782;28;20216;-77
2023/03/30 10:31:48;;;;;;;3.87;2.00;;;;;;;13.86;100.00;97758.69;5052895;28;20257;-77
2023/03/30 10:34:18;;;;;;;5.17;2.00;;;;;;;13.72;100.00;97754.75;5052597;28;20231;-77
2023/03/30 10:36:48;;;;;;;2.80;2.20;;;;;;;13.51;100.00;97737.63;5052910;28;20287;-77
2023/03/30 10:39:22;;;;;;;2.47;1.80;;;;;;;13.48;100.00;97738.09;5052949;28;20262;-77
2023/03/30 10:41:50;;;;;;;2.53;1.73;;;;;;;13.47;100.00;97733.03;5052598;28;20196;-78
2023/03/30 10:44:42;;;;;;;3.67;1.80;;;;;;;13.54;100.00;97737.16;5052729;28;20571;-78
2023/03/30 10:47:15;;;;;;;3.77;2.10;;;;;;;13.71;100.00;97742.47;5053172;28;20281;-78
2023/03/30 10:50:06;;;;;;;3.60;2.00;;;;;;;13.82;100.00;97733.50;5053050;28;20201;-77
2023/03/30 10:52:55;;;;;;;3.80;2.20;;;;;;;13.94;100.00;97740.38;5035172;28;20232;-78
2023/03/30 10:55:56;;;;;;;4.00;2.17;;;;;;;13.99;100.00;97729.75;5035116;28;20209;-77
2023/03/30 10:58:43;;;;;;;4.60;2.37;;;;;;;13.89;100.00;97734.94;5019860;28;20196;-77
2023/03/30 11:01:25;;;;;;;4.80;2.10;;;;;;;13.84;100.00;97715.38;5036602;28;20220;-76
2023/03/30 11:03:56;;;;;;;5.93;2.20;;;;;;;13.72;100.00;97710.16;5052148;28;20331;-77
2023/03/30 11:06:37;;;;;;;4.67;2.13;;;;;;;14.16;100.00;97705.63;5054967;28;20291;-77
2023/03/30 11:09:08;;;;;;;3.80;2.30;;;;;;;14.23;100.00;97725.81;5056910;28;20186;-77
2023/03/30 11:11:40;;;;;;;7.37;2.47;;;;;;;14.35;100.00;97728.34;5056213;28;20633;-77
2023/03/30 11:14:45;;;;;;;3.03;1.90;;;;;;;14.51;100.00;97736.28;5056022;28;20235;-77
2023/03/30 11:17:21;;;;;;;3.73;1.90;;;;;;;14.63;100.00;97736.94;5056091;28;20563;-77
2023/03/30 11:19:51;;;;;;;3.10;1.80;;;;;;;14.65;100.00;97755.44;5039747;28;20192;-77
2023/03/30 11:22:47;;;;;;;3.50;1.90;;;;;;;14.67;100.00;97759.47;5056044;28;20225;-76
2023/03/30 11:25:24;;;;;;;2.73;1.70;;;;;;;14.68;100.00;97754.91;5054274;28;20206;-77
2023/03/30 11:27:57;;;;;;;5.17;2.10;;;;;;;14.86;100.00;97742.00;5056560;28;20194;-76
2023/03/30 11:30:30;;;;;;;5.10;1.90;;;;;;;14.95;100.00;97737.78;5055935;28;20655;-76
2023/03/30 11:33:06;;;;;;;4.77;1.87;;;;;;;15.13;100.00;97736.59;5056200;28;20233;-77
2023/03/30 11:35:43;;;;;;;3.40;2.10;;;;;;;15.12;100.00;97751.88;5055799;28;20209;-77
2023/03/30 11:38:32;;;;;;;4.87;2.30;;;;;;;15.28;100.00;97750.13;5056189;28;20196;-77
2023/03/30 11:41:09;;;;;;;4.80;2.30;;;;;;;15.49;100.00;97751.91;5056827;28;20200;-76
2023/03/30 11:43:36;;;;;;;4.40;2.70;;;;;;;15.48;100.00;97750.31;5055786;28;20231;-77